Time;durP1;ratioP1;P1;durP2;ratioP2;P2;SDS_P1;SDS_P2;PMS_P1;PMS_P2;Temp;Humidity;BMP_temperature;BMP_pressure;BME280_temperature;BME280_humidity;BME280_pressure;Samples;Min_cycle;Max_cycle;Signal;HPM_P1;HPM_P2
2021/08/21 00:00:31;;;;;;;17.30;13.20;;;;;;;15.74;79.34;100656.98;116865;1191;21869;-77
2021/08/21 00:03:03;;;;;;;14.10;12.60;;;;;;;15.73;79.45;100653.90;116888;1188;23481;-77
2021/08/21 00:05:32;;;;;;;14.70;13.30;;;;;;;15.72;79.50;100654.42;117150;1184;22893;-77
2021/08/21 00:08:03;;;;;;;13.50;12.20;;;;;;;15.71;79.49;100657.48;117062;1188;23014;-77
2021/08/21 00:10:33;;;;;;;14.70;13.40;;;;;;;15.71;79.46;100655.45;117057;1184;21926;-77
2021/08/21 00:13:03;;;;;;;13.90;12.60;;;;;;;15.69;79.62;100655.96;116848;1188;22599;-77
2021/08/21 00:15:32;;;;;;;14.10;12.70;;;;;;;15.69;79.62;100660.49;117010;1188;23537;-77
2021/08/21 00:18:01;;;;;;;13.40;12.20;;;;;;;15.67;79.51;100656.54;116990;1188;21879;-78
2021/08/21 00:20:30;;;;;;;13.80;12.60;;;;;;;15.66;79.47;100659.77;116529;1190;21896;-78
2021/08/21 00:22:59;;;;;;;12.50;11.50;;;;;;;15.64;79.48;100659.05;116710;1190;22897;-77
2021/08/21 00:25:28;;;;;;;12.90;11.70;;;;;;;15.62;79.48;100661.04;116769;1188;23461;-77
2021/08/21 00:27:57;;;;;;;12.60;11.60;;;;;;;15.61;79.62;100659.98;116847;1188;22480;-78
2021/08/21 00:30:27;;;;;;;14.40;13.10;;;;;;;15.60;79.75;100659.77;116776;1190;23659;-79
2021/08/21 00:32:57;;;;;;;12.90;11.80;;;;;;;15.58;79.68;100655.02;116750;1187;21889;-78
2021/08/21 00:35:26;;;;;;;13.50;12.20;;;;;;;15.57;79.53;100655.25;116801;1191;23654;-80
2021/08/21 00:37:56;;;;;;;13.20;12.10;;;;;;;15.54;79.66;100654.63;116825;1184;21883;-78
2021/08/21 00:40:25;;;;;;;11.90;10.80;;;;;;;15.52;79.72;100659.11;116952;1187;21997;-78
2021/08/21 00:42:55;;;;;;;14.30;12.80;;;;;;;15.50;79.69;100656.96;117034;1187;23469;-78
2021/08/21 00:45:24;;;;;;;12.60;11.50;;;;;;;15.47;79.63;100658.51;116834;1186;21969;-77
2021/08/21 00:47:53;;;;;;;12.70;11.50;;;;;;;15.45;79.75;100661.10;116776;1189;21890;-77
2021/08/21 00:50:24;;;;;;;12.70;11.60;;;;;;;15.43;79.61;100660.34;116746;1190;21888;-77
2021/08/21 00:52:53;;;;;;;12.40;11.30;;;;;;;15.39;79.57;100661.99;116762;1190;22801;-77
2021/08/21 00:55:23;;;;;;;13.70;12.40;;;;;;;15.37;79.64;100664.23;116769;1190;21900;-77
2021/08/21 00:57:54;;;;;;;13.60;11.90;;;;;;;15.36;79.72;100662.30;116364;1195;23520;-77
2021/08/21 01:00:25;;;;;;;13.20;11.90;;;;;;;15.34;79.79;100665.55;116406;1193;22688;-77
2021/08/21 01:02:55;;;;;;;13.80;12.40;;;;;;;15.32;79.81;100667.38;116507;1193;21890;-77
2021/08/21 01:05:24;;;;;;;14.10;12.90;;;;;;;15.31;79.85;100668.40;116840;1190;22991;-77
2021/08/21 01:07:53;;;;;;;14.90;12.70;;;;;;;15.29;79.94;100665.71;116671;1190;23455;-78
2021/08/21 01:10:23;;;;;;;13.20;12.10;;;;;;;15.28;80.08;100660.54;116804;1189;21920;-77
2021/08/21 01:12:55;;;;;;;12.50;11.50;;;;;;;15.27;80.07;100660.66;116728;1191;22709;-77
2021/08/21 01:15:26;;;;;;;13.00;11.40;;;;;;;15.27;80.07;100664.63;116794;1189;23538;-78
2021/08/21 01:18:07;;;;;;;11.90;11.00;;;;;;;15.25;80.04;100663.39;117175;1181;21891;-79
2021/08/21 01:20:37;;;;;;;13.70;12.20;;;;;;;15.24;80.12;100659.09;117073;1184;21914;-78
2021/08/21 01:23:07;;;;;;;13.00;11.80;;;;;;;15.23;80.10;100657.67;117060;1187;22622;-78
2021/08/21 01:25:41;;;;;;;13.90;12.00;;;;;;;15.21;80.01;100653.93;117159;1186;21885;-78
2021/08/21 01:28:14;;;;;;;12.50;11.20;;;;;;;15.20;80.02;100649.70;117087;1188;22880;-78
2021/08/21 01:30:55;;;;;;;11.50;10.60;;;;;;;15.17;80.02;100649.30;117170;1184;21857;-79
2021/08/21 01:33:38;;;;;;;13.20;11.60;;;;;;;15.15;79.99;100644.42;116853;1189;21888;-79
2021/08/21 01:36:07;;;;;;;13.90;11.80;;;;;;;15.14;80.06;100648.63;116859;1190;23561;-78
2021/08/21 01:39:07;;;;;;;13.70;12.50;;;;;;;15.13;79.98;100647.27;116816;1189;21884;-78
2021/08/21 01:41:50;;;;;;;14.30;12.90;;;;;;;15.08;79.93;100646.77;116827;1190;22769;-79
2021/08/21 01:44:21;;;;;;;13.30;12.10;;;;;;;15.05;79.88;100650.33;116853;1190;23915;-79
2021/08/21 01:46:50;;;;;;;14.60;13.10;;;;;;;15.01;79.85;100651.77;116825;1189;21893;-78
2021/08/21 01:49:22;;;;;;;12.40;11.00;;;;;;;14.98;79.71;100649.48;116736;1190;23042;-78
2021/08/21 01:52:06;;;;;;;11.60;10.60;;;;;;;14.96;79.75;100652.17;117003;1186;21904;-79
2021/08/21 01:54:37;;;;;;;12.30;11.20;;;;;;;14.93;79.85;100654.88;117120;1187;21891;-78
2021/08/21 01:57:07;;;;;;;12.40;11.30;;;;;;;14.90;79.83;100657.88;117050;1182;21883;-78
2021/08/21 01:59:57;;;;;;;12.70;11.30;;;;;;;14.85;79.82;100659.51;116974;1185;21862;-78
2021/08/21 02:02:49;;;;;;;11.80;10.70;;;;;;;14.81;79.85;100659.30;117007;1187;21965;-77
2021/08/21 02:05:28;;;;;;;10.90;9.80;;;;;;;14.78;80.05;100656.15;117230;1185;22884;-78
2021/08/21 02:07:58;;;;;;;12.80;11.50;;;;;;;14.75;80.05;100657.68;117111;1184;21884;-77
2021/08/21 02:10:27;;;;;;;14.60;13.20;;;;;;;14.75;80.02;100659.86;117180;1187;22921;-78
2021/08/21 02:12:57;;;;;;;12.90;10.10;;;;;;;14.72;79.71;100655.55;117069;1189;23442;-78
2021/08/21 02:15:28;;;;;;;11.70;9.30;;;;;;;14.68;79.50;100654.15;117170;1184;21886;-77
2021/08/21 02:18:00;;;;;;;10.20;9.10;;;;;;;14.63;79.40;100653.77;117003;1187;22879;-77
2021/08/21 02:20:43;;;;;;;10.20;8.90;;;;;;;14.55;79.24;100651.27;117062;1188;22859;-77
2021/08/21 02:23:17;;;;;;;9.90;9.00;;;;;;;14.50;79.23;100650.48;117118;1188;23475;-78
2021/08/21 02:25:49;;;;;;;9.60;8.30;;;;;;;14.45;79.24;100650.54;117079;1186;21887;-78
2021/08/21 02:28:20;;;;;;;8.10;7.30;;;;;;;14.41;79.23;100653.96;117133;1185;23435;-78
2021/08/21 02:30:49;;;;;;;9.50;8.60;;;;;;;14.38;79.16;100652.98;117118;1188;23563;-77
2021/08/21 02:33:18;;;;;;;9.10;8.30;;;;;;;14.35;79.32;100651.80;117102;1186;23508;-77
2021/08/21 02:35:51;;;;;;;9.70;8.80;;;;;;;14.32;79.40;100654.63;116819;1189;21903;-77
2021/08/21 02:38:22;;;;;;;8.80;7.70;;;;;;;14.29;79.34;100654.42;116756;1190;21915;-78
2021/08/21 02:40:52;;;;;;;9.00;8.20;;;;;;;14.26;79.41;100655.29;116542;1193;21883;-77
2021/08/21 02:43:22;;;;;;;9.20;8.10;;;;;;;14.23;79.38;100656.52;116553;1191;23608;-78
2021/08/21 02:45:51;;;;;;;8.80;8.00;;;;;;;14.20;79.41;100658.80;116483;1192;21886;-78
2021/08/21 02:48:20;;;;;;;8.70;7.80;;;;;;;14.18;79.48;100660.70;116196;1196;23555;-78
2021/08/21 02:50:49;;;;;;;11.70;10.60;;;;;;;14.16;79.31;100664.08;116375;1195;21886;-78
2021/08/21 02:53:18;;;;;;;9.80;9.00;;;;;;;14.13;79.28;100660.02;116251;1195;23572;-77
2021/08/21 02:55:48;;;;;;;8.60;7.70;;;;;;;14.07;79.12;100657.16;116548;1192;21890;-77
2021/08/21 02:58:18;;;;;;;9.90;8.80;;;;;;;14.03;79.12;100664.28;116529;1190;22025;-78
2021/08/21 03:00:47;;;;;;;9.20;8.30;;;;;;;14.01;79.29;100664.02;116849;1188;21934;-77
2021/08/21 03:03:16;;;;;;;9.00;8.10;;;;;;;14.01;79.55;100664.54;116831;1188;21888;-78
2021/08/21 03:05:48;;;;;;;9.40;8.40;;;;;;;14.02;79.61;100668.65;116844;1184;22031;-77
2021/08/21 03:08:19;;;;;;;10.10;9.20;;;;;;;14.01;79.63;100664.09;117013;1187;21904;-77
2021/08/21 03:10:52;;;;;;;16.80;15.40;;;;;;;14.01;79.67;100665.53;117048;1182;21944;-78
2021/08/21 03:13:23;;;;;;;26.50;24.20;;;;;;;14.00;79.44;100664.65;117013;1187;21900;-79
2021/08/21 03:15:53;;;;;;;32.20;29.40;;;;;;;13.98;79.43;100665.90;117104;1185;21876;-79
2021/08/21 03:18:22;;;;;;;27.20;24.70;;;;;;;13.97;79.26;100666.98;117025;1185;22596;-78
2021/08/21 03:20:54;;;;;;;50.10;45.50;;;;;;;13.96;79.28;100670.11;117100;1185;21883;-78
2021/08/21 03:23:24;;;;;;;65.60;59.30;;;;;;;13.93;79.21;100679.23;117081;1188;21881;-78
2021/08/21 03:25:53;;;;;;;85.90;77.60;;;;;;;13.90;79.18;100682.83;117096;1188;21885;-78
2021/08/21 03:28:23;;;;;;;104.70;94.20;;;;;;;13.87;79.26;100688.38;117042;1186;21901;-78
2021/08/21 03:30:54;;;;;;;71.20;64.30;;;;;;;13.86;79.25;100692.97;117057;1185;23464;-78
2021/08/21 03:33:26;;;;;;;55.20;49.90;;;;;;;13.85;79.21;100697.36;117031;1187;23570;-77
2021/08/21 03:35:55;;;;;;;46.60;41.50;;;;;;;13.84;79.17;100697.84;117124;1188;21883;-78
2021/08/21 03:38:25;;;;;;;37.10;33.30;;;;;;;13.83;79.36;100699.52;117072;1186;21885;-78
2021/08/21 03:40:59;;;;;;;30.30;27.20;;;;;;;13.82;79.43;100698.75;117055;1185;21885;-78
2021/08/21 03:43:32;;;;;;;29.40;25.10;;;;;;;13.81;79.33;100700.66;117094;1186;21879;-78
2021/08/21 03:46:02;;;;;;;28.90;25.60;;;;;;;13.81;79.35;100702.31;117290;1185;22625;-78
2021/08/21 03:48:31;;;;;;;25.30;21.50;;;;;;;13.81;79.39;100702.12;116834;1189;21893;-78
2021/08/21 03:51:01;;;;;;;21.70;18.70;;;;;;;13.83;79.80;100703.30;116825;1189;22598;-78
2021/08/21 03:53:31;;;;;;;23.40;20.90;;;;;;;13.86;79.95;100703.92;116300;1195;21911;-78
2021/08/21 03:56:08;;;;;;;21.10;18.90;;;;;;;13.92;80.46;100709.45;116400;1193;21886;-77
2021/08/21 03:58:41;;;;;;;23.20;19.50;;;;;;;13.99;80.61;100713.65;116351;1193;22008;-78
2021/08/21 04:01:10;;;;;;;21.10;18.30;;;;;;;14.05;80.73;100715.67;116484;1193;21906;-78
2021/08/21 04:03:40;;;;;;;21.60;19.30;;;;;;;14.11;80.82;100716.23;116479;1195;24023;-77
2021/08/21 04:06:10;;;;;;;21.00;18.60;;;;;;;14.17;80.92;100721.25;116524;1193;22910;-78
2021/08/21 04:08:42;;;;;;;19.60;17.60;;;;;;;14.22;81.03;100725.17;116487;1188;21896;-78
2021/08/21 04:11:12;;;;;;;21.80;18.30;;;;;;;14.28;81.16;100725.58;116581;1189;21881;-78
2021/08/21 04:13:51;;;;;;;17.30;15.60;;;;;;;14.33;81.13;100730.84;116948;1188;21913;-78
2021/08/21 04:16:20;;;;;;;21.80;17.80;;;;;;;14.37;81.17;100733.70;116920;1188;21884;-78
2021/08/21 04:18:50;;;;;;;26.00;20.30;;;;;;;14.42;81.24;100733.30;116861;1190;23047;-77
2021/08/21 04:21:19;;;;;;;26.50;19.60;;;;;;;14.45;81.22;100736.45;117003;1182;21881;-78
2021/08/21 04:23:49;;;;;;;27.90;21.20;;;;;;;14.48;81.25;100739.77;116875;1188;22821;-78
2021/08/21 04:26:18;;;;;;;25.60;20.20;;;;;;;14.51;81.06;100742.83;117122;1187;23542;-77
2021/08/21 04:28:47;;;;;;;25.40;19.70;;;;;;;14.53;81.01;100740.82;117068;1186;22168;-78
2021/08/21 04:31:16;;;;;;;27.10;20.80;;;;;;;14.54;81.02;100739.80;117042;1188;23458;-77
2021/08/21 04:33:46;;;;;;;25.90;21.00;;;;;;;14.57;80.97;100737.59;117090;1188;23434;-77
2021/08/21 04:36:16;;;;;;;25.70;21.50;;;;;;;14.60;81.06;100741.48;116957;1188;22617;-76
2021/08/21 04:38:45;;;;;;;24.80;20.30;;;;;;;14.63;81.03;100740.08;116946;1189;23471;-77
2021/08/21 04:41:16;;;;;;;23.20;20.00;;;;;;;14.67;81.13;100740.62;116555;1192;23569;-78
2021/08/21 04:43:46;;;;;;;;;;;;;;;14.72;81.24;100742.00;116470;1195;21890;-78
2021/08/21 04:46:16;;;;;;;20.50;18.50;;;;;;;14.69;81.42;100743.67;116530;1193;21877;-77
2021/08/21 04:48:46;;;;;;;15.70;14.30;;;;;;;14.74;81.45;100744.32;116499;1191;21854;-78
2021/08/21 04:51:16;;;;;;;14.40;13.10;;;;;;;14.84;81.61;100745.14;116550;1193;21911;-78
2021/08/21 04:53:45;;;;;;;15.10;13.70;;;;;;;14.93;81.47;100747.58;116478;1192;23466;-78
2021/08/21 04:56:15;;;;;;;12.20;11.10;;;;;;;14.98;81.15;100750.45;116667;1192;22839;-78
2021/08/21 04:59:13;;;;;;;13.10;12.00;;;;;;;15.03;80.89;100751.75;116712;1185;21904;-78
2021/08/21 05:01:43;;;;;;;13.30;11.90;;;;;;;15.09;80.90;100757.54;117023;1188;21879;-79
2021/08/21 05:04:13;;;;;;;18.30;16.40;;;;;;;15.13;80.71;100756.81;116734;1191;22571;-78
2021/08/21 05:06:44;;;;;;;20.90;17.70;;;;;;;15.19;80.69;100758.73;117022;1188;21879;-78
2021/08/21 05:09:13;;;;;;;23.90;19.90;;;;;;;15.25;80.53;100754.79;116823;1187;21949;-79
2021/08/21 05:11:43;;;;;;;32.20;28.40;;;;;;;15.31;80.44;100753.40;116848;1189;21891;-79
2021/08/21 05:14:12;;;;;;;29.40;25.20;;;;;;;15.37;80.23;100751.63;116781;1191;21905;-78
2021/08/21 05:16:43;;;;;;;23.60;18.40;;;;;;;15.43;80.17;100752.09;116748;1191;21896;-79
2021/08/21 05:19:45;;;;;;;24.10;20.80;;;;;;;15.49;80.17;100755.14;116830;1188;23446;-78
2021/08/21 05:24:51;;;;;;;19.50;17.30;;;;;;;15.67;80.12;100754.23;117026;1188;22003;-78
2021/08/21 05:27:23;;;;;;;17.10;15.40;;;;;;;15.79;80.01;100756.34;116759;1192;21907;-79
2021/08/21 05:29:53;;;;;;;14.20;12.70;;;;;;;15.91;80.08;100759.36;116804;1191;22909;-78
2021/08/21 05:32:22;;;;;;;14.50;12.90;;;;;;;16.06;79.81;100762.14;116805;1190;21920;-78
2021/08/21 05:34:52;;;;;;;13.70;12.40;;;;;;;16.21;79.68;100767.70;116641;1189;22604;-77
2021/08/21 05:37:21;;;;;;;14.40;12.50;;;;;;;16.37;79.43;100771.75;116773;1189;21873;-78
2021/08/21 05:39:50;;;;;;;14.20;12.90;;;;;;;16.55;79.32;100774.97;116911;1187;21903;-78
2021/08/21 05:42:19;;;;;;;12.30;11.20;;;;;;;16.76;78.89;100774.08;116518;1190;23709;-78
2021/08/21 05:44:50;;;;;;;11.80;10.60;;;;;;;16.89;77.94;100774.30;116455;1193;23514;-78
2021/08/21 05:47:19;;;;;;;12.20;10.80;;;;;;;17.03;77.54;100776.26;116679;1190;23556;-78
2021/08/21 05:49:48;;;;;;;11.20;10.20;;;;;;;17.15;77.03;100773.39;116724;1189;21881;-78
2021/08/21 05:52:17;;;;;;;12.70;11.60;;;;;;;17.33;76.95;100774.95;116733;1192;23541;-79
2021/08/21 05:54:46;;;;;;;11.70;10.70;;;;;;;17.54;76.48;100780.83;116600;1191;23469;-78
2021/08/21 05:57:25;;;;;;;10.20;9.40;;;;;;;17.78;76.30;100786.44;116580;1190;21911;-78
2021/08/21 05:59:54;;;;;;;10.50;9.60;;;;;;;18.05;75.78;100795.41;116726;1189;21879;-78
2021/08/21 06:02:25;;;;;;;10.80;9.80;;;;;;;18.33;75.43;100792.88;117032;1183;22631;-78
2021/08/21 06:04:54;;;;;;;10.80;9.70;;;;;;;18.71;75.28;100793.55;117224;1182;21890;-78
2021/08/21 06:07:23;;;;;;;10.70;9.60;;;;;;;19.08;74.32;100790.18;117009;1187;21901;-78
2021/08/21 06:09:53;;;;;;;9.40;8.50;;;;;;;19.35;72.23;100791.65;117001;1188;22912;-78
2021/08/21 06:12:23;;;;;;;8.70;8.00;;;;;;;19.49;71.08;100795.95;117049;1185;21897;-79
2021/08/21 06:14:52;;;;;;;9.40;8.50;;;;;;;19.81;71.71;100792.86;117014;1188;22945;-78
2021/08/21 06:17:21;;;;;;;10.30;9.30;;;;;;;20.15;70.49;100792.34;116629;1191;22553;-78
2021/08/21 06:19:51;;;;;;;9.50;8.70;;;;;;;20.30;68.19;100794.84;116551;1193;22651;-78
2021/08/21 06:22:20;;;;;;;9.50;8.60;;;;;;;20.30;67.06;100793.89;116554;1193;21902;-75
2021/08/21 06:24:50;;;;;;;10.00;9.10;;;;;;;20.31;66.85;100793.48;116477;1190;21870;-74
2021/08/21 06:27:19;;;;;;;9.80;9.10;;;;;;;20.40;67.36;100794.08;116587;1191;21897;-77
2021/08/21 06:29:48;;;;;;;9.80;8.30;;;;;;;20.53;66.97;100797.08;116651;1192;21933;-76
2021/08/21 06:32:17;;;;;;;8.50;7.70;;;;;;;20.67;66.97;100794.65;116509;1191;22605;-76
2021/08/21 06:34:47;;;;;;;9.00;8.20;;;;;;;20.87;66.66;100798.30;116653;1192;21900;-77
2021/08/21 06:37:15;;;;;;;8.20;7.60;;;;;;;21.16;66.46;100802.50;116764;1188;23554;-76
2021/08/21 06:39:44;;;;;;;9.30;8.60;;;;;;;21.47;65.32;100805.88;117044;1188;21875;-76
2021/08/21 06:42:14;;;;;;;8.30;7.60;;;;;;;21.75;64.61;100804.09;117027;1188;21972;-75
2021/08/21 06:44:52;;;;;;;8.30;7.60;;;;;;;21.98;63.60;100808.58;116989;1185;23570;-77
2021/08/21 06:47:21;;;;;;;8.70;7.50;;;;;;;22.20;62.75;100805.52;117069;1188;21891;-76
2021/08/21 06:49:50;;;;;;;8.80;7.60;;;;;;;22.37;61.66;100806.45;117045;1188;23451;-77
2021/08/21 06:52:19;;;;;;;8.30;7.50;;;;;;;22.61;61.60;100806.66;117090;1184;21885;-76
2021/08/21 06:54:48;;;;;;;7.90;7.20;;;;;;;22.96;61.28;100811.05;117038;1186;21916;-76
2021/08/21 06:57:17;;;;;;;7.90;7.20;;;;;;;23.20;59.37;100812.52;117050;1188;22626;-76
2021/08/21 06:59:47;;;;;;;8.40;7.20;;;;;;;23.38;58.92;100810.27;117236;1185;23617;-76
2021/08/21 07:02:16;;;;;;;9.10;8.00;;;;;;;23.65;58.64;100809.43;117246;1185;21871;-76
2021/08/21 07:04:45;;;;;;;8.00;7.30;;;;;;;23.88;57.57;100809.98;117119;1185;22620;-77
2021/08/21 07:07:14;;;;;;;10.60;8.00;;;;;;;24.09;56.74;100814.15;117123;1185;21885;-76
2021/08/21 07:09:43;;;;;;;8.60;7.70;;;;;;;24.27;55.58;100815.61;117118;1185;22831;-77
2021/08/21 07:12:12;;;;;;;8.70;8.00;;;;;;;24.46;54.83;100818.33;117017;1183;21932;-75
2021/08/21 07:14:41;;;;;;;8.80;7.80;;;;;;;24.62;54.07;100820.08;117035;1188;22607;-77
2021/08/21 07:17:10;;;;;;;7.70;7.00;;;;;;;24.71;52.80;100823.81;117196;1185;22870;-77
2021/08/21 07:19:42;;;;;;;9.10;8.10;;;;;;;24.85;52.81;100821.03;116798;1188;22836;-77
2021/08/21 07:22:12;;;;;;;9.50;8.30;;;;;;;24.96;52.52;100820.30;116750;1191;21961;-78
2021/08/21 07:24:41;;;;;;;7.90;7.10;;;;;;;25.07;52.21;100823.52;116829;1190;21883;-77
2021/08/21 07:27:11;;;;;;;7.80;7.10;;;;;;;25.26;52.07;100827.55;116795;1189;23468;-77
2021/08/21 07:29:40;;;;;;;8.00;7.20;;;;;;;25.44;51.47;100825.41;116709;1191;23347;-78
2021/08/21 07:32:09;;;;;;;7.90;7.10;;;;;;;25.63;50.99;100827.15;116717;1189;22916;-77
2021/08/21 07:34:40;;;;;;;8.30;7.50;;;;;;;25.82;49.53;100828.60;116819;1188;22206;-76
2021/08/21 07:37:09;;;;;;;8.20;7.20;;;;;;;25.80;48.46;100832.16;116832;1188;21854;-76
2021/08/21 07:39:38;;;;;;;7.30;6.60;;;;;;;25.78;48.53;100835.86;117033;1186;21850;-77
2021/08/21 07:42:07;;;;;;;12.70;7.20;;;;;;;25.83;48.39;100836.52;117002;1186;21899;-77
2021/08/21 07:44:36;;;;;;;10.50;7.60;;;;;;;25.85;47.83;100836.44;117092;1185;22901;-76
2021/08/21 07:47:05;;;;;;;8.70;7.90;;;;;;;25.96;48.45;100834.80;117077;1187;24143;-75
2021/08/21 07:49:34;;;;;;;10.30;8.90;;;;;;;26.17;47.88;100838.52;117033;1181;21887;-76
2021/08/21 07:52:03;;;;;;;7.70;7.00;;;;;;;26.31;47.58;100838.30;117362;1185;21885;-77
2021/08/21 07:54:32;;;;;;;12.30;7.70;;;;;;;26.61;47.60;100839.38;117325;1184;23439;-77
2021/08/21 07:57:03;;;;;;;9.10;8.30;;;;;;;26.89;46.02;100842.98;117206;1185;21899;-76
2021/08/21 07:59:32;;;;;;;9.00;8.10;;;;;;;27.04;45.67;100844.62;117344;1185;21903;-76
2021/08/21 08:02:00;;;;;;;8.10;6.90;;;;;;;27.13;44.81;100845.48;117101;1185;23312;-76
2021/08/21 08:04:29;;;;;;;7.50;6.50;;;;;;;27.14;43.98;100843.31;116991;1188;22039;-76
2021/08/21 08:06:58;;;;;;;6.20;5.70;;;;;;;27.06;44.03;100846.96;116887;1188;21888;-76
2021/08/21 08:09:28;;;;;;;6.00;5.40;;;;;;;27.07;43.94;100849.46;116957;1188;21885;-76
2021/08/21 08:11:57;;;;;;;7.90;5.20;;;;;;;27.17;43.95;100851.42;117001;1188;21898;-75
2021/08/21 08:14:26;;;;;;;7.50;5.80;;;;;;;27.36;43.94;100850.73;116968;1188;22849;-77
2021/08/21 08:16:55;;;;;;;6.50;5.90;;;;;;;27.50;43.05;100847.02;117039;1188;22892;-76
2021/08/21 08:19:24;;;;;;;7.20;6.30;;;;;;;27.63;43.05;100847.73;116972;1188;22624;-76
2021/08/21 08:21:53;;;;;;;5.90;5.40;;;;;;;27.70;42.67;100851.27;116824;1187;21902;-75
2021/08/21 08:24:23;;;;;;;5.60;5.10;;;;;;;27.74;42.18;100854.91;117286;1179;21889;-76
2021/08/21 08:26:53;;;;;;;7.60;5.50;;;;;;;27.72;41.90;100853.55;117265;1185;21886;-75
2021/08/21 08:29:21;;;;;;;5.40;4.90;;;;;;;27.71;42.60;100851.11;116989;1185;23463;-77
2021/08/21 08:31:50;;;;;;;5.30;4.70;;;;;;;27.77;42.17;100855.64;117026;1181;21873;-76
2021/08/21 08:34:19;;;;;;;4.60;3.80;;;;;;;27.79;41.67;100860.85;117229;1185;22038;-76
2021/08/21 08:36:48;;;;;;;4.90;4.00;;;;;;;27.82;41.16;100857.62;117083;1185;21880;-75
2021/08/21 08:39:17;;;;;;;3.70;3.00;;;;;;;27.90;40.63;100857.17;117101;1186;23556;-75
2021/08/21 08:41:47;;;;;;;4.30;3.90;;;;;;;27.88;40.01;100859.20;117002;1188;21902;-76
2021/08/21 08:44:17;;;;;;;4.30;3.40;;;;;;;27.81;39.94;100860.48;117016;1188;23513;-76
2021/08/21 08:46:46;;;;;;;5.50;3.60;;;;;;;27.68;39.20;100866.91;117086;1187;21886;-77
2021/08/21 08:49:15;;;;;;;5.90;3.50;;;;;;;27.33;38.84;100867.91;116984;1188;21987;-77
2021/08/21 08:51:45;;;;;;;4.20;3.40;;;;;;;27.21;39.74;100866.58;117018;1184;21893;-75
2021/08/21 08:54:14;;;;;;;5.30;3.70;;;;;;;27.23;40.12;100863.48;117223;1185;21878;-76
2021/08/21 08:56:43;;;;;;;3.60;3.30;;;;;;;27.41;39.93;100866.96;117276;1186;21887;-75
2021/08/21 08:59:12;;;;;;;3.50;3.20;;;;;;;27.39;38.82;100865.16;117132;1186;21885;-76
2021/08/21 09:01:42;;;;;;;3.40;3.10;;;;;;;27.38;39.53;100867.06;117009;1185;21946;-76
2021/08/21 09:04:23;;;;;;;2.70;2.40;;;;;;;27.30;39.02;100867.85;116984;1186;21884;-75
2021/08/21 09:06:54;;;;;;;2.60;2.40;;;;;;;27.22;39.11;100865.87;117249;1185;21868;-75
2021/08/21 09:09:26;;;;;;;6.10;2.70;;;;;;;27.16;38.63;100865.67;117220;1185;22831;-76
2021/08/21 09:11:55;;;;;;;3.60;3.30;;;;;;;26.94;38.07;100862.85;117132;1188;22834;-76
2021/08/21 09:14:31;;;;;;;3.80;3.50;;;;;;;26.47;38.66;100864.04;117244;1185;21929;-75
2021/08/21 09:17:14;;;;;;;5.50;3.70;;;;;;;26.29;40.49;100860.01;117068;1188;22601;-75
2021/08/21 09:19:46;;;;;;;4.30;3.30;;;;;;;26.46;41.07;100859.97;117257;1185;21897;-76
2021/08/21 09:22:15;;;;;;;4.00;3.40;;;;;;;26.56;40.45;100861.50;117152;1185;23456;-76
2021/08/21 09:24:44;;;;;;;3.40;2.80;;;;;;;26.64;39.93;100863.14;117081;1185;22930;-76
2021/08/21 09:27:23;;;;;;;2.70;2.40;;;;;;;26.76;39.75;100864.13;117247;1185;21859;-76
2021/08/21 09:30:13;;;;;;;4.50;3.20;;;;;;;26.99;39.96;100869.82;117205;1185;21911;-76
2021/08/21 09:32:43;;;;;;;3.20;2.90;;;;;;;27.34;39.48;100867.69;117090;1185;22855;-76
2021/08/21 09:35:13;;;;;;;2.70;2.40;;;;;;;27.50;37.97;100870.89;117013;1185;21861;-76
2021/08/21 09:37:51;;;;;;;4.00;2.50;;;;;;;27.49;37.73;100873.05;117221;1187;21896;-76
2021/08/21 09:40:36;;;;;;;3.90;2.00;;;;;;;27.52;37.42;100873.06;117061;1185;21895;-75
2021/08/21 09:43:18;;;;;;;2.80;2.40;;;;;;;27.60;37.93;100869.88;117254;1185;21905;-76
2021/08/21 09:45:49;;;;;;;2.20;2.00;;;;;;;27.88;37.50;100876.89;117094;1184;21884;-77
2021/08/21 09:48:17;;;;;;;3.60;2.70;;;;;;;28.16;36.73;100873.20;117120;1187;21875;-76
2021/08/21 09:50:46;;;;;;;3.50;2.60;;;;;;;28.44;36.29;100874.61;117174;1185;21898;-76
2021/08/21 09:53:36;;;;;;;7.10;3.30;;;;;;;28.61;35.75;100875.67;117208;1185;21864;-76
2021/08/21 09:56:12;;;;;;;4.20;3.20;;;;;;;28.63;34.94;100877.24;117189;1188;21890;-76
2021/08/21 09:58:41;;;;;;;6.30;2.80;;;;;;;28.42;34.68;100874.34;117074;1187;21884;-76
2021/08/21 10:01:14;;;;;;;3.00;2.20;;;;;;;28.15;35.02;100875.42;117227;1185;21884;-76
2021/08/21 10:03:44;;;;;;;2.80;2.50;;;;;;;28.10;36.02;100873.52;117106;1185;22979;-75
2021/08/21 10:06:12;;;;;;;2.80;2.20;;;;;;;28.27;36.14;100869.81;117046;1188;22380;-75
2021/08/21 10:08:41;;;;;;;3.10;2.30;;;;;;;28.43;35.54;100872.55;117166;1185;21896;-75
2021/08/21 10:11:11;;;;;;;2.90;2.50;;;;;;;28.53;35.47;100877.27;117110;1186;22096;-76
2021/08/21 10:13:42;;;;;;;3.00;2.70;;;;;;;28.65;34.69;100881.15;117244;1185;21887;-76
2021/08/21 10:16:12;;;;;;;3.50;2.90;;;;;;;28.60;34.30;100878.45;117005;1188;21879;-75
2021/08/21 10:18:42;;;;;;;3.50;2.20;;;;;;;28.59;34.46;100874.91;117159;1185;22228;-75
2021/08/21 10:21:13;;;;;;;2.50;2.30;;;;;;;28.71;34.54;100871.52;117095;1185;22621;-76
2021/08/21 10:23:48;;;;;;;3.10;2.00;;;;;;;28.84;34.14;100877.73;117051;1188;23660;-76
2021/08/21 10:26:39;;;;;;;2.80;2.10;;;;;;;28.96;34.27;100876.39;117090;1186;23442;-76
2021/08/21 10:29:13;;;;;;;2.90;2.40;;;;;;;28.96;33.42;100878.24;117497;1185;23440;-76
2021/08/21 10:31:49;;;;;;;3.20;2.50;;;;;;;28.86;33.43;100876.64;117374;1185;22849;-77
2021/08/21 10:34:18;;;;;;;5.10;2.90;;;;;;;28.60;32.88;100877.57;117212;1185;21902;-76
2021/08/21 10:36:57;;;;;;;2.60;2.40;;;;;;;28.18;33.56;100875.39;117088;1185;22624;-76
2021/08/21 10:39:36;;;;;;;6.20;2.40;;;;;;;27.93;34.99;100878.80;117233;1185;21886;-77
2021/08/21 10:42:23;;;;;;;2.80;2.50;;;;;;;27.99;35.19;100877.22;116837;1188;22995;-76
2021/08/21 10:44:55;;;;;;;3.50;2.60;;;;;;;28.02;34.47;100879.83;116944;1188;21876;-76
2021/08/21 10:47:38;;;;;;;4.40;2.30;;;;;;;28.04;34.16;100881.41;116891;1187;22096;-76
2021/08/21 10:50:16;;;;;;;2.20;1.80;;;;;;;27.89;33.81;100878.41;116776;1189;21879;-76
2021/08/21 10:52:51;;;;;;;2.20;2.00;;;;;;;27.77;34.11;100881.20;116843;1188;22864;-76
2021/08/21 10:55:28;;;;;;;2.50;1.90;;;;;;;27.67;34.16;100875.86;116873;1188;21896;-76
2021/08/21 10:58:04;;;;;;;2.60;1.90;;;;;;;27.53;34.22;100875.61;116861;1190;22808;-75
2021/08/21 11:00:45;;;;;;;2.60;2.00;;;;;;;27.20;33.93;100878.97;117071;1188;21844;-75
2021/08/21 11:03:38;;;;;;;2.90;2.10;;;;;;;26.74;34.42;100878.31;117207;1180;21915;-76
2021/08/21 11:06:10;;;;;;;2.50;2.10;;;;;;;26.21;35.33;100879.88;117219;1185;22851;-75
2021/08/21 11:08:39;;;;;;;4.10;2.40;;;;;;;25.81;36.17;100879.58;117055;1186;22901;-75
2021/08/21 11:11:11;;;;;;;2.50;1.90;;;;;;;25.55;36.92;100877.52;117207;1185;21887;-75
2021/08/21 11:14:04;;;;;;;3.00;2.30;;;;;;;25.46;37.64;100879.69;117212;1185;22827;-75
2021/08/21 11:17:11;;;;;;;2.30;2.00;;;;;;;25.34;37.62;100873.45;117206;1185;22918;-76
2021/08/21 11:19:47;;;;;;;2.00;1.40;;;;;;;25.25;37.92;100873.34;117067;1187;21888;-75
2021/08/21 11:22:30;;;;;;;1.90;1.40;;;;;;;25.17;37.84;100869.14;117130;1185;21985;-76
2021/08/21 11:25:07;;;;;;;1.90;1.70;;;;;;;25.09;37.71;100868.47;117263;1185;21886;-76
2021/08/21 11:27:38;;;;;;;2.30;1.50;;;;;;;25.02;38.17;100874.16;117642;1186;21900;-79
2021/08/21 11:30:18;;;;;;;4.30;1.90;;;;;;;24.99;38.30;100877.36;117312;1188;21962;-78
2021/08/21 11:33:08;;;;;;;7.20;1.90;;;;;;;24.96;38.67;100877.39;117317;1185;23453;-79